sensor_id;sensor_type;location;lat;lon;timestamp;pressure;altitude;pressure_sealevel;temperature;humidity
7050;BME280;22263;52.260;10.548;2023-05-29T00:01:55;100967.03;;;16.66;100.00
7050;BME280;22263;52.260;10.548;2023-05-29T00:04:25;100966.34;;;16.44;100.00
7050;BME280;22263;52.260;10.548;2023-05-29T00:06:55;100963.94;;;16.43;100.00
7050;BME280;22263;52.260;10.548;2023-05-29T00:09:25;100968.31;;;16.47;100.00
7050;BME280;22263;52.260;10.548;2023-05-29T00:11:55;100971.84;;;16.55;100.00
7050;BME280;22263;52.260;10.548;2023-05-29T00:14:25;100968.31;;;16.47;100.00
7050;BME280;22263;52.260;10.548;2023-05-29T00:16:57;100957.09;;;16.58;100.00
7050;BME280;22263;52.260;10.548;2023-05-29T00:19:27;100963.06;;;16.60;100.00
7050;BME280;22263;52.260;10.548;2023-05-29T00:21:57;100964.69;;;16.50;100.00
7050;BME280;22263;52.260;10.548;2023-05-29T00:24:26;100966.41;;;16.27;100.00
7050;BME280;22263;52.260;10.548;2023-05-29T00:26:56;100967.97;;;16.31;100.00
7050;BME280;22263;52.260;10.548;2023-05-29T00:29:26;100974.34;;;16.39;100.00
7050;BME280;22263;52.260;10.548;2023-05-29T00:31:59;100975.94;;;16.36;100.00
7050;BME280;22263;52.260;10.548;2023-05-29T00:34:29;100979.97;;;16.28;100.00
7050;BME280;22263;52.260;10.548;2023-05-29T00:36:59;100984.31;;;16.33;100.00
7050;BME280;22263;52.260;10.548;2023-05-29T00:39:30;100982.34;;;16.26;100.00
7050;BME280;22263;52.260;10.548;2023-05-29T00:41:59;100982.41;;;16.16;100.00
7050;BME280;22263;52.260;10.548;2023-05-29T00:44:29;100982.41;;;16.12;100.00
7050;BME280;22263;52.260;10.548;2023-05-29T00:47:02;100991.94;;;16.22;100.00
7050;BME280;22263;52.260;10.548;2023-05-29T00:49:33;100995.94;;;16.24;100.00
7050;BME280;22263;52.260;10.548;2023-05-29T00:52:06;100998.31;;;16.26;100.00
7050;BME280;22263;52.260;10.548;2023-05-29T00:54:37;100995.97;;;16.13;100.00
7050;BME280;22263;52.260;10.548;2023-05-29T00:57:07;100988.81;;;16.05;100.00
7050;BME280;22263;52.260;10.548;2023-05-29T00:59:36;100998.81;;;15.99;100.00
7050;BME280;22263;52.260;10.548;2023-05-29T01:02:09;100994.84;;;15.83;100.00
7050;BME280;22263;52.260;10.548;2023-05-29T01:04:39;101007.22;;;15.75;100.00
7050;BME280;22263;52.260;10.548;2023-05-29T01:07:09;101009.63;;;15.65;100.00
7050;BME280;22263;52.260;10.548;2023-05-29T01:09:39;101013.63;;;15.68;100.00
7050;BME280;22263;52.260;10.548;2023-05-29T01:12:23;101008.84;;;15.58;100.00
7050;BME280;22263;52.260;10.548;2023-05-29T01:15:08;101007.25;;;15.53;100.00
7050;BME280;22263;52.260;10.548;2023-05-29T01:17:57;101007.66;;;15.52;100.00
7050;BME280;22263;52.260;10.548;2023-05-29T01:20:38;101008.84;;;15.54;100.00
7050;BME280;22263;52.260;10.548;2023-05-29T01:23:25;101001.66;;;15.43;100.00
7050;BME280;22263;52.260;10.548;2023-05-29T01:26:07;101000.06;;;15.49;100.00
7050;BME280;22263;52.260;10.548;2023-05-29T01:28:47;101008.44;;;15.38;100.00
7050;BME280;22263;52.260;10.548;2023-05-29T01:31:23;101015.19;;;15.37;100.00
7050;BME280;22263;52.260;10.548;2023-05-29T01:33:54;101016.38;;;15.40;100.00
7050;BME280;22263;52.260;10.548;2023-05-29T01:36:25;101017.59;;;15.28;100.00
7050;BME280;22263;52.260;10.548;2023-05-29T01:38:57;101020.75;;;15.26;100.00
7050;BME280;22263;52.260;10.548;2023-05-29T01:41:29;101030.28;;;15.11;100.00
7050;BME280;22263;52.260;10.548;2023-05-29T01:44:05;101025.94;;;15.10;100.00
7050;BME280;22263;52.260;10.548;2023-05-29T01:46:38;101031.50;;;14.96;100.00
7050;BME280;22263;52.260;10.548;2023-05-29T01:49:09;101033.06;;;14.94;100.00
7050;BME280;22263;52.260;10.548;2023-05-29T01:51:41;101037.44;;;14.98;100.00
7050;BME280;22263;52.260;10.548;2023-05-29T01:54:11;101035.84;;;14.87;100.00
7050;BME280;22263;52.260;10.548;2023-05-29T01:56:41;101035.41;;;14.70;100.00
7050;BME280;22263;52.260;10.548;2023-05-29T01:59:14;101038.50;;;14.51;100.00
7050;BME280;22263;52.260;10.548;2023-05-29T02:01:45;101035.28;;;14.38;100.00
7050;BME280;22263;52.260;10.548;2023-05-29T02:04:14;101030.91;;;14.45;100.00
7050;BME280;22263;52.260;10.548;2023-05-29T02:06:44;101036.47;;;14.45;100.00
7050;BME280;22263;52.260;10.548;2023-05-29T02:09:16;101038.09;;;14.46;100.00
7050;BME280;22263;52.260;10.548;2023-05-29T02:11:47;101046.81;;;14.44;100.00
7050;BME280;22263;52.260;10.548;2023-05-29T02:14:19;101042.84;;;14.45;100.00
7050;BME280;22263;52.260;10.548;2023-05-29T02:16:52;101050.72;;;14.32;100.00
7050;BME280;22263;52.260;10.548;2023-05-29T02:19:24;101057.00;;;14.19;100.00
7050;BME280;22263;52.260;10.548;2023-05-29T02:21:54;101050.22;;;14.09;100.00
7050;BME280;22263;52.260;10.548;2023-05-29T02:24:24;101055.41;;;14.14;100.00
7050;BME280;22263;52.260;10.548;2023-05-29T02:26:53;101057.31;;;14.00;100.00
7050;BME280;22263;52.260;10.548;2023-05-29T02:29:26;101059.28;;;14.03;100.00
7050;BME280;22263;52.260;10.548;2023-05-29T02:31:55;101065.66;;;14.03;100.00
7050;BME280;22263;52.260;10.548;2023-05-29T02:34:25;101060.38;;;13.84;100.00
7050;BME280;22263;52.260;10.548;2023-05-29T02:36:55;101063.22;;;13.94;100.00
7050;BME280;22263;52.260;10.548;2023-05-29T02:39:25;101062.69;;;13.75;100.00
7050;BME280;22263;52.260;10.548;2023-05-29T02:41:55;101060.66;;;13.72;100.00
7050;BME280;22263;52.260;10.548;2023-05-29T02:44:27;101054.28;;;13.68;100.00
7050;BME280;22263;52.260;10.548;2023-05-29T02:46:57;101063.41;;;13.65;100.00
7050;BME280;22263;52.260;10.548;2023-05-29T02:49:27;101062.63;;;13.68;100.00
7050;BME280;22263;52.260;10.548;2023-05-29T02:51:57;101066.19;;;13.68;100.00
7050;BME280;22263;52.260;10.548;2023-05-29T02:54:26;101066.97;;;13.62;100.00
7050;BME280;22263;52.260;10.548;2023-05-29T02:56:56;101077.56;;;13.49;100.00
7050;BME280;22263;52.260;10.548;2023-05-29T02:59:29;101074.06;;;13.56;100.00
7050;BME280;22263;52.260;10.548;2023-05-29T03:01:59;101070.03;;;13.49;100.00
7050;BME280;22263;52.260;10.548;2023-05-29T03:04:28;101074.72;;;13.42;100.00
7050;BME280;22263;52.260;10.548;2023-05-29T03:06:58;101068.03;;;13.46;100.00
7050;BME280;22263;52.260;10.548;2023-05-29T03:09:30;101070.00;;;13.46;100.00
7050;BME280;22263;52.260;10.548;2023-05-29T03:12:00;101084.63;;;13.39;100.00
7050;BME280;22263;52.260;10.548;2023-05-29T03:14:33;101077.91;;;13.44;100.00
7050;BME280;22263;52.260;10.548;2023-05-29T03:17:08;101074.81;;;13.52;100.00
7050;BME280;22263;52.260;10.548;2023-05-29T03:19:38;101083.13;;;13.49;100.00
7050;BME280;22263;52.260;10.548;2023-05-29T03:22:08;101084.25;;;13.44;100.00
7050;BME280;22263;52.260;10.548;2023-05-29T03:24:38;101089.81;;;13.44;100.00
7050;BME280;22263;52.260;10.548;2023-05-29T03:27:09;101085.78;;;13.38;100.00
7050;BME280;22263;52.260;10.548;2023-05-29T03:29:42;101085.84;;;13.42;100.00
7050;BME280;22263;52.260;10.548;2023-05-29T03:32:12;101086.91;;;13.30;100.00
7050;BME280;22263;52.260;10.548;2023-05-29T03:34:42;101093.38;;;13.41;100.00
7050;BME280;22263;52.260;10.548;2023-05-29T03:37:13;101081.78;;;13.32;100.00
7050;BME280;22263;52.260;10.548;2023-05-29T03:39:43;101092.91;;;13.32;100.00
7050;BME280;22263;52.260;10.548;2023-05-29T03:42:13;101088.97;;;13.37;100.00
7050;BME280;22263;52.260;10.548;2023-05-29T03:44:46;101084.09;;;13.27;100.00
7050;BME280;22263;52.260;10.548;2023-05-29T03:47:16;101082.94;;;13.28;100.00
7050;BME280;22263;52.260;10.548;2023-05-29T03:49:46;101092.50;;;13.34;100.00
7050;BME280;22263;52.260;10.548;2023-05-29T03:52:17;101094.53;;;13.37;100.00
7050;BME280;22263;52.260;10.548;2023-05-29T03:54:47;101092.94;;;13.39;100.00
7050;BME280;22263;52.260;10.548;2023-05-29T03:57:17;101089.69;;;13.30;100.00
7050;BME280;22263;52.260;10.548;2023-05-29T03:59:49;101100.09;;;13.37;100.00
7050;BME280;22263;52.260;10.548;2023-05-29T04:02:19;101103.06;;;13.18;100.00
7050;BME280;22263;52.260;10.548;2023-05-29T04:04:49;101111.00;;;13.19;100.00
7050;BME280;22263;52.260;10.548;2023-05-29T04:07:19;101103.88;;;13.18;100.00
7050;BME280;22263;52.260;10.548;2023-05-29T04:09:50;101104.38;;;13.31;100.00
7050;BME280;22263;52.260;10.548;2023-05-29T04:12:19;101102.03;;;13.33;100.00
7050;BME280;22263;52.260;10.548;2023-05-29T04:14:52;101102.09;;;13.40;100.00
7050;BME280;22263;52.260;10.548;2023-05-29T04:17:21;101104.47;;;13.38;100.00
7050;BME280;22263;52.260;10.548;2023-05-29T04:19:51;101108.22;;;13.19;100.00
7050;BME280;22263;52.260;10.548;2023-05-29T04:22:22;101106.38;;;13.34;100.00
7050;BME280;22263;52.260;10.548;2023-05-29T04:24:52;101112.50;;;13.50;100.00
7050;BME280;22263;52.260;10.548;2023-05-29T04:27:22;101109.41;;;13.59;100.00
7050;BME280;22263;52.260;10.548;2023-05-29T04:29:55;101111.81;;;13.64;100.00
7050;BME280;22263;52.260;10.548;2023-05-29T04:32:27;101109.94;;;13.75;100.00
7050;BME280;22263;52.260;10.548;2023-05-29T04:34:58;101113.19;;;13.84;100.00
7050;BME280;22263;52.260;10.548;2023-05-29T04:37:32;101110.44;;;13.91;100.00
7050;BME280;22263;52.260;10.548;2023-05-29T04:40:07;101114.88;;;13.95;100.00
7050;BME280;22263;52.260;10.548;2023-05-29T04:42:42;101112.56;;;14.05;100.00
7050;BME280;22263;52.260;10.548;2023-05-29T04:45:16;101122.19;;;14.18;100.00
7050;BME280;22263;52.260;10.548;2023-05-29T04:47:47;101118.22;;;14.22;100.00
7050;BME280;22263;52.260;10.548;2023-05-29T04:50:17;101124.97;;;14.21;100.00
7050;BME280;22263;52.260;10.548;2023-05-29T04:52:47;101119.47;;;14.32;100.00
7050;BME280;22263;52.260;10.548;2023-05-29T04:55:17;101116.69;;;14.28;100.00
7050;BME280;22263;52.260;10.548;2023-05-29T04:57:47;101123.53;;;14.42;100.00
7050;BME280;22263;52.260;10.548;2023-05-29T05:00:20;101126.31;;;14.38;100.00
7050;BME280;22263;52.260;10.548;2023-05-29T05:02:53;101133.88;;;14.45;100.00
7050;BME280;22263;52.260;10.548;2023-05-29T05:05:24;101133.59;;;14.64;100.00
7050;BME280;22263;52.260;10.548;2023-05-29T05:07:57;101132.75;;;14.53;100.00
7050;BME280;22263;52.260;10.548;2023-05-29T05:10:27;101130.00;;;14.63;100.00
7050;BME280;22263;52.260;10.548;2023-05-29T05:12:57;101127.22;;;14.63;100.00
7050;BME280;22263;52.260;10.548;2023-05-29T05:15:32;101130.75;;;14.53;100.00
7050;BME280;22263;52.260;10.548;2023-05-29T05:18:03;101125.16;;;14.50;100.00
7050;BME280;22263;52.260;10.548;2023-05-29T05:20:34;101115.25;;;14.52;100.00
7050;BME280;22263;52.260;10.548;2023-05-29T05:23:04;101116.06;;;14.56;100.00
7050;BME280;22263;52.260;10.548;2023-05-29T05:25:34;101112.59;;;14.77;100.00
7050;BME280;22263;52.260;10.548;2023-05-29T05:28:04;101113.78;;;14.83;100.00
7050;BME280;22263;52.260;10.548;2023-05-29T05:30:37;101121.38;;;14.97;100.00
7050;BME280;22263;52.260;10.548;2023-05-29T05:33:07;101110.69;;;15.09;100.00
7050;BME280;22263;52.260;10.548;2023-05-29T05:35:38;101114.72;;;15.22;100.00
7050;BME280;22263;52.260;10.548;2023-05-29T05:38:08;101113.13;;;15.25;100.00
7050;BME280;22263;52.260;10.548;2023-05-29T05:40:38;101123.88;;;15.30;100.00
7050;BME280;22263;52.260;10.548;2023-05-29T05:43:13;101119.91;;;15.45;100.00
7050;BME280;22263;52.260;10.548;2023-05-29T05:46:09;101119.53;;;15.43;100.00
7050;BME280;22263;52.260;10.548;2023-05-29T05:48:41;101110.38;;;15.46;100.00
7050;BME280;22263;52.260;10.548;2023-05-29T05:51:10;101120.75;;;15.74;100.00
7050;BME280;22263;52.260;10.548;2023-05-29T05:53:41;101126.34;;;15.53;100.00
7050;BME280;22263;52.260;10.548;2023-05-29T05:56:12;101123.56;;;15.88;100.00
7050;BME280;22263;52.260;10.548;2023-05-29T05:58:43;101117.59;;;15.90;100.00
7050;BME280;22263;52.260;10.548;2023-05-29T06:01:16;101118.78;;;15.82;100.00
7050;BME280;22263;52.260;10.548;2023-05-29T06:03:47;101117.97;;;15.74;100.00
7050;BME280;22263;52.260;10.548;2023-05-29T06:06:17;101121.94;;;15.98;100.00
7050;BME280;22263;52.260;10.548;2023-05-29T06:08:48;101121.53;;;16.13;100.00
7050;BME280;22263;52.260;10.548;2023-05-29T06:11:19;101124.31;;;16.17;100.00
7050;BME280;22263;52.260;10.548;2023-05-29T06:13:49;101128.75;;;16.11;100.00
7050;BME280;22263;52.260;10.548;2023-05-29T06:16:25;101132.25;;;16.47;100.00
7050;BME280;22263;52.260;10.548;2023-05-29T06:18:56;101129.03;;;16.52;100.00
7050;BME280;22263;52.260;10.548;2023-05-29T06:21:27;101135.03;;;16.54;100.00
7050;BME280;22263;52.260;10.548;2023-05-29T06:23:57;101129.06;;;16.45;100.00
7050;BME280;22263;52.260;10.548;2023-05-29T06:26:27;101139.72;;;16.85;100.00
7050;BME280;22263;52.260;10.548;2023-05-29T06:28:57;101135.09;;;17.34;100.00
7050;BME280;22263;52.260;10.548;2023-05-29T06:31:29;101135.19;;;17.16;100.00
7050;BME280;22263;52.260;10.548;2023-05-29T06:34:00;101136.00;;;17.10;100.00
7050;BME280;22263;52.260;10.548;2023-05-29T06:36:30;101129.00;;;17.50;100.00
7050;BME280;22263;52.260;10.548;2023-05-29T06:38:59;101147.22;;;17.72;100.00
7050;BME280;22263;52.260;10.548;2023-05-29T06:41:30;101143.59;;;17.75;100.00
7050;BME280;22263;52.260;10.548;2023-05-29T06:44:00;101142.03;;;17.70;100.00
7050;BME280;22263;52.260;10.548;2023-05-29T06:46:33;101147.13;;;17.86;100.00
7050;BME280;22263;52.260;10.548;2023-05-29T06:49:04;101139.84;;;17.96;100.00
7050;BME280;22263;52.260;10.548;2023-05-29T06:51:34;101151.47;;;18.35;100.00
7050;BME280;22263;52.260;10.548;2023-05-29T06:54:29;101157.34;;;18.48;100.00
7050;BME280;22263;52.260;10.548;2023-05-29T06:56:59;101152.44;;;18.59;100.00
7050;BME280;22263;52.260;10.548;2023-05-29T06:59:38;101145.22;;;18.61;100.00
7050;BME280;22263;52.260;10.548;2023-05-29T07:02:11;101153.66;;;18.13;100.00
7050;BME280;22263;52.260;10.548;2023-05-29T07:04:41;101159.63;;;18.19;100.00
7050;BME280;22263;52.260;10.548;2023-05-29T07:07:11;101156.97;;;18.46;100.00
7050;BME280;22263;52.260;10.548;2023-05-29T07:09:41;101147.34;;;18.47;100.00
7050;BME280;22263;52.260;10.548;2023-05-29T07:12:11;101162.00;;;18.61;100.00
7050;BME280;22263;52.260;10.548;2023-05-29T07:14:42;101158.41;;;18.64;100.00
7050;BME280;22263;52.260;10.548;2023-05-29T07:17:17;101167.50;;;19.06;100.00
7050;BME280;22263;52.260;10.548;2023-05-29T07:19:58;101173.31;;;18.54;100.00
7050;BME280;22263;52.260;10.548;2023-05-29T07:22:28;101170.59;;;18.85;100.00
7050;BME280;22263;52.260;10.548;2023-05-29T07:24:58;101178.72;;;19.36;100.00
7050;BME280;22263;52.260;10.548;2023-05-29T07:27:29;101173.38;;;19.99;100.00
7050;BME280;22263;52.260;10.548;2023-05-29T07:29:58;101190.50;;;19.54;100.00
7050;BME280;22263;52.260;10.548;2023-05-29T07:32:31;101182.56;;;19.49;100.00
7050;BME280;22263;52.260;10.548;2023-05-29T07:35:01;101168.84;;;20.05;100.00
7050;BME280;22263;52.260;10.548;2023-05-29T07:37:32;101179.72;;;20.26;100.00
7050;BME280;22263;52.260;10.548;2023-05-29T07:40:04;101161.78;;;19.97;100.00
7050;BME280;22263;52.260;10.548;2023-05-29T07:42:53;101163.22;;;19.82;100.00
7050;BME280;22263;52.260;10.548;2023-05-29T07:45:27;101167.28;;;20.04;100.00
7050;BME280;22263;52.260;10.548;2023-05-29T07:48:00;101173.25;;;20.06;100.00
7050;BME280;22263;52.260;10.548;2023-05-29T07:50:30;101164.47;;;20.27;100.00
7050;BME280;22263;52.260;10.548;2023-05-29T07:53:00;101163.50;;;20.37;100.00
7050;BME280;22263;52.260;10.548;2023-05-29T07:55:32;101170.22;;;20.43;100.00
7050;BME280;22263;52.260;10.548;2023-05-29T07:58:02;101174.69;;;19.91;100.00
7050;BME280;22263;52.260;10.548;2023-05-29T08:00:32;101174.28;;;20.82;98.68
7050;BME280;22263;52.260;10.548;2023-05-29T08:03:05;101164.06;;;20.72;97.30
7050;BME280;22263;52.260;10.548;2023-05-29T08:06:10;101169.63;;;20.75;95.04
7050;BME280;22263;52.260;10.548;2023-05-29T08:08:40;101172.47;;;20.92;95.35
7050;BME280;22263;52.260;10.548;2023-05-29T08:11:11;101177.09;;;20.82;94.36
7050;BME280;22263;52.260;10.548;2023-05-29T08:13:40;101175.13;;;20.59;97.03
7050;BME280;22263;52.260;10.548;2023-05-29T08:16:10;101173.28;;;21.31;92.80
7050;BME280;22263;52.260;10.548;2023-05-29T08:18:45;101177.56;;;21.56;90.80
7050;BME280;22263;52.260;10.548;2023-05-29T08:21:15;101169.31;;;21.29;90.04
7050;BME280;22263;52.260;10.548;2023-05-29T08:23:45;101178.09;;;21.67;85.81
7050;BME280;22263;52.260;10.548;2023-05-29T08:26:14;101174.63;;;21.95;85.90
7050;BME280;22263;52.260;10.548;2023-05-29T08:28:44;101173.75;;;22.14;81.87
7050;BME280;22263;52.260;10.548;2023-05-29T08:31:14;101176.56;;;22.59;78.11
7050;BME280;22263;52.260;10.548;2023-05-29T08:33:46;101177.47;;;22.40;80.56
7050;BME280;22263;52.260;10.548;2023-05-29T08:36:16;101181.75;;;22.32;79.50
7050;BME280;22263;52.260;10.548;2023-05-29T08:38:47;101173.66;;;22.34;81.86
7050;BME280;22263;52.260;10.548;2023-05-29T08:41:21;101173.53;;;23.24;73.42
7050;BME280;22263;52.260;10.548;2023-05-29T08:43:52;101167.00;;;23.40;67.67
7050;BME280;22263;52.260;10.548;2023-05-29T08:46:23;101178.50;;;23.20;65.05
7050;BME280;22263;52.260;10.548;2023-05-29T08:48:58;101170.97;;;23.55;66.50
7050;BME280;22263;52.260;10.548;2023-05-29T08:51:36;101172.25;;;23.00;67.30
7050;BME280;22263;52.260;10.548;2023-05-29T08:54:07;101166.47;;;23.70;63.60
7050;BME280;22263;52.260;10.548;2023-05-29T08:56:37;101168.63;;;24.95;57.72
7050;BME280;22263;52.260;10.548;2023-05-29T08:59:07;101172.66;;;25.06;56.49
7050;BME280;22263;52.260;10.548;2023-05-29T09:01:37;101171.28;;;25.11;53.60
7050;BME280;22263;52.260;10.548;2023-05-29T09:04:10;101170.06;;;24.77;53.72
7050;BME280;22263;52.260;10.548;2023-05-29T09:06:40;101176.88;;;25.02;53.97
7050;BME280;22263;52.260;10.548;2023-05-29T09:09:10;101174.38;;;25.56;52.55
7050;BME280;22263;52.260;10.548;2023-05-29T09:11:40;101173.50;;;25.16;54.37
7050;BME280;22263;52.260;10.548;2023-05-29T09:14:12;101173.22;;;25.23;55.79
7050;BME280;22263;52.260;10.548;2023-05-29T09:17:01;101171.81;;;24.97;55.18
7050;BME280;22263;52.260;10.548;2023-05-29T09:19:35;101183.78;;;25.23;51.60
7050;BME280;22263;52.260;10.548;2023-05-29T09:22:09;101185.25;;;24.71;52.12
7050;BME280;22263;52.260;10.548;2023-05-29T09:24:43;101185.31;;;24.58;53.92
7050;BME280;22263;52.260;10.548;2023-05-29T09:27:15;101191.88;;;24.90;51.29
7050;BME280;22263;52.260;10.548;2023-05-29T09:29:45;101184.16;;;25.34;49.16
7050;BME280;22263;52.260;10.548;2023-05-29T09:32:17;101186.63;;;26.61;46.73
7050;BME280;22263;52.260;10.548;2023-05-29T09:34:53;101183.28;;;27.17;43.37
7050;BME280;22263;52.260;10.548;2023-05-29T09:37:23;101174.47;;;26.69;44.84
7050;BME280;22263;52.260;10.548;2023-05-29T09:39:52;101180.69;;;27.55;43.21
7050;BME280;22263;52.260;10.548;2023-05-29T09:42:22;101189.13;;;26.50;44.70
7050;BME280;22263;52.260;10.548;2023-05-29T09:44:59;101185.63;;;25.47;47.61
7050;BME280;22263;52.260;10.548;2023-05-29T09:47:33;101177.19;;;24.60;50.00
7050;BME280;22263;52.260;10.548;2023-05-29T09:50:07;101170.06;;;25.21;49.66
7050;BME280;22263;52.260;10.548;2023-05-29T09:52:47;101168.25;;;25.58;47.58
7050;BME280;22263;52.260;10.548;2023-05-29T09:55:20;101171.66;;;25.84;46.90
7050;BME280;22263;52.260;10.548;2023-05-29T09:57:49;101173.47;;;25.07;47.17
7050;BME280;22263;52.260;10.548;2023-05-29T10:00:20;101175.50;;;25.37;46.97
7050;BME280;22263;52.260;10.548;2023-05-29T10:02:50;101171.78;;;27.11;42.52
7050;BME280;22263;52.260;10.548;2023-05-29T10:05:22;101171.16;;;26.80;42.62
7050;BME280;22263;52.260;10.548;2023-05-29T10:07:54;101172.09;;;26.77;41.39
7050;BME280;22263;52.260;10.548;2023-05-29T10:10:25;101169.63;;;27.90;40.69
7050;BME280;22263;52.260;10.548;2023-05-29T10:12:56;101168.56;;;27.37;40.65
7050;BME280;22263;52.260;10.548;2023-05-29T10:15:27;101165.28;;;28.51;38.52
7050;BME280;22263;52.260;10.548;2023-05-29T10:18:02;101159.16;;;27.63;40.90
7050;BME280;22263;52.260;10.548;2023-05-29T10:20:35;101170.50;;;24.89;44.98
7050;BME280;22263;52.260;10.548;2023-05-29T10:23:06;101158.75;;;24.99;44.54
7050;BME280;22263;52.260;10.548;2023-05-29T10:25:38;101160.56;;;25.37;43.17
7050;BME280;22263;52.260;10.548;2023-05-29T10:28:11;101158.72;;;25.83;42.70
7050;BME280;22263;52.260;10.548;2023-05-29T10:30:45;101158.59;;;25.95;42.35
7050;BME280;22263;52.260;10.548;2023-05-29T10:33:29;101161.13;;;25.01;43.60
7050;BME280;22263;52.260;10.548;2023-05-29T10:36:12;101156.91;;;26.16;42.69
7050;BME280;22263;52.260;10.548;2023-05-29T10:38:44;101151.91;;;26.47;40.70
7050;BME280;22263;52.260;10.548;2023-05-29T10:41:30;101150.88;;;25.96;42.14
7050;BME280;22263;52.260;10.548;2023-05-29T10:47:11;101139.63;;;26.78;40.31
7050;BME280;22263;52.260;10.548;2023-05-29T10:49:49;101141.44;;;25.90;41.50
7050;BME280;22263;52.260;10.548;2023-05-29T10:52:22;101138.69;;;26.44;41.88
7050;BME280;22263;52.260;10.548;2023-05-29T10:54:54;101139.44;;;27.09;39.60
7050;BME280;22263;52.260;10.548;2023-05-29T10:57:24;101143.25;;;26.24;41.12
7050;BME280;22263;52.260;10.548;2023-05-29T10:59:58;101142.31;;;25.38;42.33
7050;BME280;22263;52.260;10.548;2023-05-29T11:02:31;101144.19;;;24.66;44.27
7050;BME280;22263;52.260;10.548;2023-05-29T11:05:05;101145.66;;;23.89;46.33
7050;BME280;22263;52.260;10.548;2023-05-29T11:07:52;101140.44;;;24.48;45.72
7050;BME280;22263;52.260;10.548;2023-05-29T11:10:41;101137.69;;;25.00;44.48
7050;BME280;22263;52.260;10.548;2023-05-29T11:13:22;101139.16;;;25.36;43.16
7050;BME280;22263;52.260;10.548;2023-05-29T11:16:11;101141.03;;;25.60;42.59
7050;BME280;22263;52.260;10.548;2023-05-29T11:18:42;101137.75;;;25.71;40.99
7050;BME280;22263;52.260;10.548;2023-05-29T11:21:22;101146.22;;;25.62;41.54
7050;BME280;22263;52.260;10.548;2023-05-29T11:23:57;101149.88;;;24.32;44.21
7050;BME280;22263;52.260;10.548;2023-05-29T11:26:34;101135.69;;;25.63;42.33
7050;BME280;22263;52.260;10.548;2023-05-29T11:29:06;101137.16;;;25.85;42.01
7050;BME280;22263;52.260;10.548;2023-05-29T11:31:39;101140.34;;;26.05;41.06
7050;BME280;22263;52.260;10.548;2023-05-29T11:34:14;101143.00;;;26.00;40.70
7050;BME280;22263;52.260;10.548;2023-05-29T11:36:44;101124.97;;;26.34;39.39
7050;BME280;22263;52.260;10.548;2023-05-29T11:39:18;101139.53;;;24.72;40.43
7050;BME280;22263;52.260;10.548;2023-05-29T11:41:50;101150.16;;;25.34;40.79
7050;BME280;22263;52.260;10.548;2023-05-29T11:44:20;101140.28;;;26.27;39.60
7050;BME280;22263;52.260;10.548;2023-05-29T11:46:59;101148.06;;;26.14;39.82
7050;BME280;22263;52.260;10.548;2023-05-29T11:49:29;101154.38;;;25.29;41.65
7050;BME280;22263;52.260;10.548;2023-05-29T11:52:07;101147.97;;;25.69;40.82
7050;BME280;22263;52.260;10.548;2023-05-29T11:54:44;101135.84;;;25.06;41.46
7050;BME280;22263;52.260;10.548;2023-05-29T11:57:20;101132.84;;;26.39;39.39
7050;BME280;22263;52.260;10.548;2023-05-29T11:59:50;101130.09;;;25.90;40.08
7050;BME280;22263;52.260;10.548;2023-05-29T12:02:25;101122.16;;;26.52;39.72
7050;BME280;22263;52.260;10.548;2023-05-29T12:05:01;101117.38;;;26.67;38.51
7050;BME280;22263;52.260;10.548;2023-05-29T12:07:31;101129.84;;;27.39;38.68
7050;BME280;22263;52.260;10.548;2023-05-29T12:10:12;101117.09;;;26.29;39.98
7050;BME280;22263;52.260;10.548;2023-05-29T12:12:42;101119.09;;;26.01;40.50
7050;BME280;22263;52.260;10.548;2023-05-29T12:15:12;101117.41;;;26.58;40.23
7050;BME280;22263;52.260;10.548;2023-05-29T12:17:43;101123.84;;;26.68;38.68
7050;BME280;22263;52.260;10.548;2023-05-29T12:20:14;101124.28;;;25.53;39.71
7050;BME280;22263;52.260;10.548;2023-05-29T12:22:44;101132.03;;;24.79;41.09
7050;BME280;22263;52.260;10.548;2023-05-29T12:25:19;101127.66;;;25.30;40.28
7050;BME280;22263;52.260;10.548;2023-05-29T12:27:49;101128.00;;;25.72;39.70
7050;BME280;22263;52.260;10.548;2023-05-29T12:30:20;101133.97;;;25.03;39.77
7050;BME280;22263;52.260;10.548;2023-05-29T12:33:28;101130.66;;;25.05;40.24
7050;BME280;22263;52.260;10.548;2023-05-29T12:36:03;101125.59;;;25.31;40.64
7050;BME280;22263;52.260;10.548;2023-05-29T12:38:45;101121.13;;;25.51;39.97
7050;BME280;22263;52.260;10.548;2023-05-29T12:41:23;101120.41;;;26.27;39.00
7050;BME280;22263;52.260;10.548;2023-05-29T12:43:54;101128.97;;;25.87;37.72
7050;BME280;22263;52.260;10.548;2023-05-29T12:46:25;101126.88;;;25.60;38.16
7050;BME280;22263;52.260;10.548;2023-05-29T12:48:57;101129.50;;;24.93;38.98
7050;BME280;22263;52.260;10.548;2023-05-29T12:51:28;101133.22;;;25.12;39.02
7050;BME280;22263;52.260;10.548;2023-05-29T12:53:58;101125.31;;;25.69;38.63
7050;BME280;22263;52.260;10.548;2023-05-29T12:56:29;101117.56;;;26.55;37.27
7050;BME280;22263;52.260;10.548;2023-05-29T12:58:59;101116.44;;;25.57;37.38
7050;BME280;22263;52.260;10.548;2023-05-29T13:01:28;101120.59;;;25.66;37.99
7050;BME280;22263;52.260;10.548;2023-05-29T13:04:01;101119.47;;;26.30;37.45
7050;BME280;22263;52.260;10.548;2023-05-29T13:06:34;101116.56;;;27.12;35.63
7050;BME280;22263;52.260;10.548;2023-05-29T13:09:04;101116.88;;;27.05;35.21
7050;BME280;22263;52.260;10.548;2023-05-29T13:11:35;101112.16;;;27.02;34.96
7050;BME280;22263;52.260;10.548;2023-05-29T13:14:05;101101.50;;;26.42;36.23